sensor_id;sensor_type;location;lat;lon;timestamp;pressure;altitude;pressure_sealevel;temperature;humidity
9695;BME280;4690;52.422;13.486;2023-04-15T00:05:29;100264.28;;;10.45;98.54
9695;BME280;4690;52.422;13.486;2023-04-15T00:07:56;100259.03;;;10.44;97.97
9695;BME280;4690;52.422;13.486;2023-04-15T00:10:24;100257.84;;;10.40;97.89
9695;BME280;4690;52.422;13.486;2023-04-15T00:12:50;100255.94;;;10.40;98.10
9695;BME280;4690;52.422;13.486;2023-04-15T00:15:17;100257.59;;;10.29;98.52
9695;BME280;4690;52.422;13.486;2023-04-15T00:17:42;100252.84;;;10.37;98.52
9695;BME280;4690;52.422;13.486;2023-04-15T00:20:09;100254.63;;;10.31;98.36
9695;BME280;4690;52.422;13.486;2023-04-15T00:22:35;100256.16;;;10.39;97.94
9695;BME280;4690;52.422;13.486;2023-04-15T00:25:01;100251.16;;;10.36;98.20
9695;BME280;4690;52.422;13.486;2023-04-15T00:27:27;100260.59;;;10.40;98.32
9695;BME280;4690;52.422;13.486;2023-04-15T00:29:54;100249.75;;;10.45;98.07
9695;BME280;4690;52.422;13.486;2023-04-15T00:32:20;100242.03;;;10.42;97.59
9695;BME280;4690;52.422;13.486;2023-04-15T00:34:46;100248.19;;;10.37;97.98
9695;BME280;4690;52.422;13.486;2023-04-15T00:37:12;100251.41;;;10.34;98.25
9695;BME280;4690;52.422;13.486;2023-04-15T00:39:38;100254.03;;;10.41;98.36
9695;BME280;4690;52.422;13.486;2023-04-15T00:42:04;100248.69;;;10.34;97.81
9695;BME280;4690;52.422;13.486;2023-04-15T00:44:31;100252.59;;;10.38;97.91
9695;BME280;4690;52.422;13.486;2023-04-15T00:46:59;100247.38;;;10.37;98.18
9695;BME280;4690;52.422;13.486;2023-04-15T00:49:25;100244.03;;;10.35;97.61
9695;BME280;4690;52.422;13.486;2023-04-15T00:51:53;100247.13;;;10.38;97.77
9695;BME280;4690;52.422;13.486;2023-04-15T00:54:19;100241.63;;;10.38;97.61
9695;BME280;4690;52.422;13.486;2023-04-15T00:56:45;100244.50;;;10.31;97.98
9695;BME280;4690;52.422;13.486;2023-04-15T00:59:12;100239.25;;;10.30;98.02
9695;BME280;4690;52.422;13.486;2023-04-15T01:01:39;100236.59;;;10.23;98.57
9695;BME280;4690;52.422;13.486;2023-04-15T01:04:05;100243.31;;;10.27;98.30
9695;BME280;4690;52.422;13.486;2023-04-15T01:06:31;100235.94;;;10.28;98.52
9695;BME280;4690;52.422;13.486;2023-04-15T01:08:59;100240.94;;;10.31;98.39
9695;BME280;4690;52.422;13.486;2023-04-15T01:11:25;100243.81;;;10.36;98.30
9695;BME280;4690;52.422;13.486;2023-04-15T01:13:54;100238.91;;;10.38;98.19
9695;BME280;4690;52.422;13.486;2023-04-15T01:16:21;100234.38;;;10.44;98.11
9695;BME280;4690;52.422;13.486;2023-04-15T01:18:48;100231.06;;;10.42;97.71
9695;BME280;4690;52.422;13.486;2023-04-15T01:21:13;100231.91;;;10.42;98.16
9695;BME280;4690;52.422;13.486;2023-04-15T01:23:39;100227.47;;;10.41;97.69
9695;BME280;4690;52.422;13.486;2023-04-15T01:26:07;100227.72;;;10.40;97.91
9695;BME280;4690;52.422;13.486;2023-04-15T01:28:34;100222.09;;;10.46;98.03
9695;BME280;4690;52.422;13.486;2023-04-15T01:31:12;100227.94;;;10.38;97.48
9695;BME280;4690;52.422;13.486;2023-04-15T01:33:42;100233.06;;;10.35;97.75
9695;BME280;4690;52.422;13.486;2023-04-15T01:36:09;100234.84;;;10.41;97.51
9695;BME280;4690;52.422;13.486;2023-04-15T01:38:36;100226.16;;;10.44;97.97
9695;BME280;4690;52.422;13.486;2023-04-15T01:41:02;100232.84;;;10.48;97.40
9695;BME280;4690;52.422;13.486;2023-04-15T01:43:34;100226.75;;;10.46;97.54
9695;BME280;4690;52.422;13.486;2023-04-15T01:46:00;100227.00;;;10.44;97.89
9695;BME280;4690;52.422;13.486;2023-04-15T01:48:26;100231.28;;;10.40;97.39
9695;BME280;4690;52.422;13.486;2023-04-15T01:50:54;100230.59;;;10.45;97.63
9695;BME280;4690;52.422;13.486;2023-04-15T01:53:22;100220.81;;;10.49;97.67
9695;BME280;4690;52.422;13.486;2023-04-15T01:55:48;100220.47;;;10.45;97.56
9695;BME280;4690;52.422;13.486;2023-04-15T01:58:13;100221.06;;;10.47;97.54
9695;BME280;4690;52.422;13.486;2023-04-15T02:00:39;100221.63;;;10.49;97.07
9695;BME280;4690;52.422;13.486;2023-04-15T02:03:06;100219.50;;;10.51;97.48
9695;BME280;4690;52.422;13.486;2023-04-15T02:05:32;100220.31;;;10.52;96.89
9695;BME280;4690;52.422;13.486;2023-04-15T02:07:58;100212.34;;;10.50;97.06
9695;BME280;4690;52.422;13.486;2023-04-15T02:10:24;100218.75;;;10.44;96.96
9695;BME280;4690;52.422;13.486;2023-04-15T02:12:50;100215.94;;;10.39;97.03
9695;BME280;4690;52.422;13.486;2023-04-15T02:15:16;100212.47;;;10.44;97.32
9695;BME280;4690;52.422;13.486;2023-04-15T02:17:42;100220.66;;;10.20;97.05
9695;BME280;4690;52.422;13.486;2023-04-15T02:20:10;100214.88;;;10.28;97.42
9695;BME280;4690;52.422;13.486;2023-04-15T02:22:36;100218.28;;;10.24;97.18
9695;BME280;4690;52.422;13.486;2023-04-15T02:25:03;100210.00;;;10.30;97.50
9695;BME280;4690;52.422;13.486;2023-04-15T02:27:28;100216.13;;;10.26;97.53
9695;BME280;4690;52.422;13.486;2023-04-15T02:29:55;100210.78;;;10.19;98.20
9695;BME280;4690;52.422;13.486;2023-04-15T02:32:21;100212.34;;;10.27;97.42
9695;BME280;4690;52.422;13.486;2023-04-15T02:34:48;100217.78;;;10.15;97.72
9695;BME280;4690;52.422;13.486;2023-04-15T02:37:14;100210.53;;;10.21;98.22
9695;BME280;4690;52.422;13.486;2023-04-15T02:39:40;100212.34;;;10.27;97.60
9695;BME280;4690;52.422;13.486;2023-04-15T02:42:06;100210.22;;;10.29;97.67
9695;BME280;4690;52.422;13.486;2023-04-15T02:44:32;100219.97;;;10.25;97.69
9695;BME280;4690;52.422;13.486;2023-04-15T02:46:59;100210.44;;;10.27;97.85
9695;BME280;4690;52.422;13.486;2023-04-15T02:49:25;100223.06;;;10.28;97.30
9695;BME280;4690;52.422;13.486;2023-04-15T02:51:54;100221.63;;;10.26;97.64
9695;BME280;4690;52.422;13.486;2023-04-15T02:54:21;100218.78;;;10.32;97.74
9695;BME280;4690;52.422;13.486;2023-04-15T02:56:51;100213.31;;;10.32;97.70
9695;BME280;4690;52.422;13.486;2023-04-15T02:59:20;100218.16;;;10.19;97.89
9695;BME280;4690;52.422;13.486;2023-04-15T03:01:45;100217.59;;;10.28;98.31
9695;BME280;4690;52.422;13.486;2023-04-15T03:04:11;100232.69;;;10.19;98.31
9695;BME280;4690;52.422;13.486;2023-04-15T03:06:38;100228.03;;;10.20;98.67
9695;BME280;4690;52.422;13.486;2023-04-15T03:09:04;100221.25;;;10.22;98.90
9695;BME280;4690;52.422;13.486;2023-04-15T03:11:31;100221.38;;;10.27;98.49
9695;BME280;4690;52.422;13.486;2023-04-15T03:13:57;100229.34;;;10.17;98.97
9695;BME280;4690;52.422;13.486;2023-04-15T03:16:24;100223.06;;;10.17;99.16
9695;BME280;4690;52.422;13.486;2023-04-15T03:18:50;100230.53;;;10.21;99.01
9695;BME280;4690;52.422;13.486;2023-04-15T03:21:16;100226.25;;;10.14;99.28
9695;BME280;4690;52.422;13.486;2023-04-15T03:23:41;100234.69;;;10.24;99.33
9695;BME280;4690;52.422;13.486;2023-04-15T03:26:07;100229.16;;;10.30;99.12
9695;BME280;4690;52.422;13.486;2023-04-15T03:28:33;100232.84;;;10.36;99.22
9695;BME280;4690;52.422;13.486;2023-04-15T03:30:59;100225.59;;;10.42;98.56
9695;BME280;4690;52.422;13.486;2023-04-15T03:33:25;100229.50;;;10.46;99.04
9695;BME280;4690;52.422;13.486;2023-04-15T03:35:52;100231.41;;;10.45;98.48
9695;BME280;4690;52.422;13.486;2023-04-15T03:38:17;100231.28;;;10.40;98.59
9695;BME280;4690;52.422;13.486;2023-04-15T03:40:45;100229.84;;;10.49;98.53
9695;BME280;4690;52.422;13.486;2023-04-15T03:43:11;100226.63;;;10.52;98.55
9695;BME280;4690;52.422;13.486;2023-04-15T03:45:37;100223.06;;;10.52;98.24
9695;BME280;4690;52.422;13.486;2023-04-15T03:48:03;100234.97;;;10.46;98.55
9695;BME280;4690;52.422;13.486;2023-04-15T03:50:29;100224.72;;;10.53;98.28
9695;BME280;4690;52.422;13.486;2023-04-15T03:52:54;100229.75;;;10.56;98.39
9695;BME280;4690;52.422;13.486;2023-04-15T03:55:20;100237.25;;;10.49;98.26
9695;BME280;4690;52.422;13.486;2023-04-15T03:57:46;100237.94;;;10.44;98.60
9695;BME280;4690;52.422;13.486;2023-04-15T04:00:12;100234.63;;;10.54;98.32
9695;BME280;4690;52.422;13.486;2023-04-15T04:02:38;100244.75;;;10.53;98.19
9695;BME280;4690;52.422;13.486;2023-04-15T04:05:04;100242.59;;;10.55;98.21
9695;BME280;4690;52.422;13.486;2023-04-15T04:07:30;100242.00;;;10.53;98.04
9695;BME280;4690;52.422;13.486;2023-04-15T04:09:57;100237.59;;;10.52;98.18
9695;BME280;4690;52.422;13.486;2023-04-15T04:12:23;100242.84;;;10.54;98.51
9695;BME280;4690;52.422;13.486;2023-04-15T04:14:48;100236.75;;;10.52;98.45
9695;BME280;4690;52.422;13.486;2023-04-15T04:17:14;100239.28;;;10.53;98.77
9695;BME280;4690;52.422;13.486;2023-04-15T04:19:40;100249.28;;;10.60;98.49
9695;BME280;4690;52.422;13.486;2023-04-15T04:22:06;100247.22;;;10.67;98.13
9695;BME280;4690;52.422;13.486;2023-04-15T04:24:31;100242.34;;;10.69;98.24
9695;BME280;4690;52.422;13.486;2023-04-15T04:26:57;100238.91;;;10.73;98.03
9695;BME280;4690;52.422;13.486;2023-04-15T04:29:23;100246.38;;;10.78;97.83
9695;BME280;4690;52.422;13.486;2023-04-15T04:31:49;100235.91;;;10.75;97.81
9695;BME280;4690;52.422;13.486;2023-04-15T04:34:15;100243.63;;;10.78;97.82
9695;BME280;4690;52.422;13.486;2023-04-15T04:36:41;100249.59;;;10.75;97.56
9695;BME280;4690;52.422;13.486;2023-04-15T04:39:07;100243.88;;;10.76;97.73
9695;BME280;4690;52.422;13.486;2023-04-15T04:41:32;100249.72;;;10.80;97.86
9695;BME280;4690;52.422;13.486;2023-04-15T04:43:58;100246.63;;;10.76;97.41
9695;BME280;4690;52.422;13.486;2023-04-15T04:46:24;100246.16;;;10.80;97.56
9695;BME280;4690;52.422;13.486;2023-04-15T04:48:50;100246.84;;;10.75;97.64
9695;BME280;4690;52.422;13.486;2023-04-15T04:51:17;100251.78;;;10.73;98.33
9695;BME280;4690;52.422;13.486;2023-04-15T04:53:43;100247.00;;;10.68;98.21
9695;BME280;4690;52.422;13.486;2023-04-15T04:56:08;100253.31;;;10.69;98.11
9695;BME280;4690;52.422;13.486;2023-04-15T04:58:34;100260.91;;;10.67;98.34
9695;BME280;4690;52.422;13.486;2023-04-15T05:01:00;100266.19;;;10.57;99.09
9695;BME280;4690;52.422;13.486;2023-04-15T05:03:27;100257.97;;;10.57;99.10
9695;BME280;4690;52.422;13.486;2023-04-15T05:05:53;100266.53;;;10.60;99.28
9695;BME280;4690;52.422;13.486;2023-04-15T05:08:19;100272.97;;;10.66;99.19
9695;BME280;4690;52.422;13.486;2023-04-15T05:10:45;100269.88;;;10.74;99.09
9695;BME280;4690;52.422;13.486;2023-04-15T05:13:12;100265.81;;;10.76;98.83
9695;BME280;4690;52.422;13.486;2023-04-15T05:15:37;100264.13;;;10.75;98.43
9695;BME280;4690;52.422;13.486;2023-04-15T05:18:05;100271.31;;;10.65;98.87
9695;BME280;4690;52.422;13.486;2023-04-15T05:20:31;100273.66;;;10.61;99.14
9695;BME280;4690;52.422;13.486;2023-04-15T05:22:57;100278.09;;;10.62;99.24
9695;BME280;4690;52.422;13.486;2023-04-15T05:25:23;100287.63;;;10.60;99.56
9695;BME280;4690;52.422;13.486;2023-04-15T05:27:48;100283.19;;;10.59;99.76
9695;BME280;4690;52.422;13.486;2023-04-15T05:30:14;100277.03;;;10.63;99.96
9695;BME280;4690;52.422;13.486;2023-04-15T05:32:40;100282.47;;;10.75;99.82
9695;BME280;4690;52.422;13.486;2023-04-15T05:35:06;100282.03;;;10.66;99.25
9695;BME280;4690;52.422;13.486;2023-04-15T05:37:33;100284.25;;;10.81;100.00
9695;BME280;4690;52.422;13.486;2023-04-15T05:39:58;100285.47;;;10.85;99.28
9695;BME280;4690;52.422;13.486;2023-04-15T05:42:24;100286.56;;;10.84;99.74
9695;BME280;4690;52.422;13.486;2023-04-15T05:44:50;100282.13;;;10.83;99.65
9695;BME280;4690;52.422;13.486;2023-04-15T05:47:16;100274.50;;;10.85;99.55
9695;BME280;4690;52.422;13.486;2023-04-15T05:49:42;100276.16;;;10.86;98.99
9695;BME280;4690;52.422;13.486;2023-04-15T05:52:07;100266.88;;;10.87;99.97
9695;BME280;4690;52.422;13.486;2023-04-15T05:54:33;100275.56;;;10.72;99.85
9695;BME280;4690;52.422;13.486;2023-04-15T05:56:59;100276.19;;;10.74;100.00
9695;BME280;4690;52.422;13.486;2023-04-15T05:59:25;100278.69;;;10.88;99.98
9695;BME280;4690;52.422;13.486;2023-04-15T06:01:51;100270.31;;;10.94;99.47
9695;BME280;4690;52.422;13.486;2023-04-15T06:04:17;100278.44;;;10.77;98.80
9695;BME280;4690;52.422;13.486;2023-04-15T06:06:43;100281.91;;;10.85;99.84
9695;BME280;4690;52.422;13.486;2023-04-15T06:09:09;100279.25;;;10.78;99.71
9695;BME280;4690;52.422;13.486;2023-04-15T06:11:34;100275.22;;;10.81;99.96
9695;BME280;4690;52.422;13.486;2023-04-15T06:14:02;100281.53;;;10.93;99.61
9695;BME280;4690;52.422;13.486;2023-04-15T06:16:27;100281.28;;;10.94;99.49
9695;BME280;4690;52.422;13.486;2023-04-15T06:18:53;100278.88;;;11.10;99.30
9695;BME280;4690;52.422;13.486;2023-04-15T06:21:19;100282.91;;;11.19;98.85
9695;BME280;4690;52.422;13.486;2023-04-15T06:23:45;100284.72;;;11.13;98.24
9695;BME280;4690;52.422;13.486;2023-04-15T06:26:11;100284.94;;;11.12;98.56
9695;BME280;4690;52.422;13.486;2023-04-15T06:28:37;100291.63;;;11.16;98.12
9695;BME280;4690;52.422;13.486;2023-04-15T06:31:02;100291.88;;;11.03;98.54
9695;BME280;4690;52.422;13.486;2023-04-15T06:33:28;100299.50;;;11.00;99.10
9695;BME280;4690;52.422;13.486;2023-04-15T06:35:54;100300.81;;;11.10;99.59
9695;BME280;4690;52.422;13.486;2023-04-15T06:38:20;100309.34;;;11.25;99.27
9695;BME280;4690;52.422;13.486;2023-04-15T06:40:45;100305.41;;;11.33;99.38
9695;BME280;4690;52.422;13.486;2023-04-15T06:43:11;100308.34;;;11.43;98.48
9695;BME280;4690;52.422;13.486;2023-04-15T06:45:37;100314.13;;;11.30;96.09
9695;BME280;4690;52.422;13.486;2023-04-15T06:48:03;100319.44;;;10.96;97.79
9695;BME280;4690;52.422;13.486;2023-04-15T06:50:29;100323.59;;;10.98;99.16
9695;BME280;4690;52.422;13.486;2023-04-15T06:52:55;100309.75;;;11.05;98.37
9695;BME280;4690;52.422;13.486;2023-04-15T06:55:21;100316.44;;;10.97;99.40
9695;BME280;4690;52.422;13.486;2023-04-15T06:57:47;100322.72;;;11.21;99.27
9695;BME280;4690;52.422;13.486;2023-04-15T07:00:13;100318.53;;;11.31;98.88
9695;BME280;4690;52.422;13.486;2023-04-15T07:02:39;100327.72;;;11.25;98.13
9695;BME280;4690;52.422;13.486;2023-04-15T07:05:06;100328.41;;;11.32;97.83
9695;BME280;4690;52.422;13.486;2023-04-15T07:07:32;100330.97;;;11.10;97.99
9695;BME280;4690;52.422;13.486;2023-04-15T07:09:57;100322.50;;;11.11;97.97
9695;BME280;4690;52.422;13.486;2023-04-15T07:12:24;100332.53;;;11.06;98.38
9695;BME280;4690;52.422;13.486;2023-04-15T07:14:50;100341.94;;;11.10;98.04
9695;BME280;4690;52.422;13.486;2023-04-15T07:17:16;100345.19;;;11.07;97.17
9695;BME280;4690;52.422;13.486;2023-04-15T07:19:42;100349.22;;;10.92;97.96
9695;BME280;4690;52.422;13.486;2023-04-15T07:22:07;100343.13;;;11.02;98.13
9695;BME280;4690;52.422;13.486;2023-04-15T07:24:33;100349.13;;;10.87;97.91
9695;BME280;4690;52.422;13.486;2023-04-15T07:26:59;100342.31;;;10.66;97.80
9695;BME280;4690;52.422;13.486;2023-04-15T07:29:26;100347.91;;;10.60;97.91
9695;BME280;4690;52.422;13.486;2023-04-15T07:31:52;100351.97;;;10.69;99.10
9695;BME280;4690;52.422;13.486;2023-04-15T07:34:18;100352.09;;;10.86;98.89
9695;BME280;4690;52.422;13.486;2023-04-15T07:36:45;100352.22;;;10.79;98.42
9695;BME280;4690;52.422;13.486;2023-04-15T07:39:15;100356.13;;;10.60;98.88
9695;BME280;4690;52.422;13.486;2023-04-15T07:41:41;100353.88;;;10.57;99.25
9695;BME280;4690;52.422;13.486;2023-04-15T07:44:07;100363.63;;;10.64;98.85
9695;BME280;4690;52.422;13.486;2023-04-15T07:46:32;100354.44;;;10.47;99.03
9695;BME280;4690;52.422;13.486;2023-04-15T07:48:58;100354.44;;;10.59;99.93
9695;BME280;4690;52.422;13.486;2023-04-15T07:51:24;100360.84;;;10.41;99.77
9695;BME280;4690;52.422;13.486;2023-04-15T07:53:50;100357.91;;;10.42;100.00
9695;BME280;4690;52.422;13.486;2023-04-15T07:56:16;100363.00;;;10.39;100.00
9695;BME280;4690;52.422;13.486;2023-04-15T07:58:42;100358.84;;;10.48;100.00
9695;BME280;4690;52.422;13.486;2023-04-15T08:01:08;100363.03;;;10.62;100.00
9695;BME280;4690;52.422;13.486;2023-04-15T08:03:34;100363.63;;;10.64;99.58
9695;BME280;4690;52.422;13.486;2023-04-15T08:05:59;100368.53;;;10.74;99.00
9695;BME280;4690;52.422;13.486;2023-04-15T08:08:25;100377.09;;;10.89;97.28
9695;BME280;4690;52.422;13.486;2023-04-15T08:10:51;100373.06;;;10.80;98.03
9695;BME280;4690;52.422;13.486;2023-04-15T08:13:18;100368.88;;;10.77;98.22
9695;BME280;4690;52.422;13.486;2023-04-15T08:15:44;100374.34;;;10.66;98.65
9695;BME280;4690;52.422;13.486;2023-04-15T08:18:10;100378.88;;;10.72;99.61
9695;BME280;4690;52.422;13.486;2023-04-15T08:20:35;100381.50;;;10.67;98.98
9695;BME280;4690;52.422;13.486;2023-04-15T08:23:02;100379.22;;;10.64;99.59
9695;BME280;4690;52.422;13.486;2023-04-15T08:25:29;100375.78;;;10.68;98.62
9695;BME280;4690;52.422;13.486;2023-04-15T08:27:55;100381.59;;;10.48;100.00
9695;BME280;4690;52.422;13.486;2023-04-15T08:30:22;100382.59;;;10.66;100.00
9695;BME280;4690;52.422;13.486;2023-04-15T08:32:49;100382.72;;;10.83;100.00
9695;BME280;4690;52.422;13.486;2023-04-15T08:35:15;100393.91;;;10.81;98.85
9695;BME280;4690;52.422;13.486;2023-04-15T08:37:41;100390.56;;;10.67;98.92
9695;BME280;4690;52.422;13.486;2023-04-15T08:40:08;100387.44;;;10.64;99.03
9695;BME280;4690;52.422;13.486;2023-04-15T08:42:43;100392.72;;;10.77;98.94
9695;BME280;4690;52.422;13.486;2023-04-15T08:45:10;100392.72;;;10.77;98.68
9695;BME280;4690;52.422;13.486;2023-04-15T08:47:37;100397.38;;;10.76;98.30
9695;BME280;4690;52.422;13.486;2023-04-15T08:50:08;100396.19;;;10.84;98.89
9695;BME280;4690;52.422;13.486;2023-04-15T08:52:34;100401.91;;;10.83;98.11
9695;BME280;4690;52.422;13.486;2023-04-15T08:55:02;100400.59;;;10.85;98.63
9695;BME280;4690;52.422;13.486;2023-04-15T08:57:28;100395.09;;;10.97;98.52
9695;BME280;4690;52.422;13.486;2023-04-15T08:59:57;100396.53;;;10.99;97.68
9695;BME280;4690;52.422;13.486;2023-04-15T09:02:25;100393.31;;;10.91;98.52
9695;BME280;4690;52.422;13.486;2023-04-15T09:04:52;100400.25;;;11.05;98.62
9695;BME280;4690;52.422;13.486;2023-04-15T09:07:18;100400.97;;;11.12;98.49
9695;BME280;4690;52.422;13.486;2023-04-15T09:09:44;100405.84;;;10.98;98.28
9695;BME280;4690;52.422;13.486;2023-04-15T09:12:11;100400.94;;;10.89;98.58
9695;BME280;4690;52.422;13.486;2023-04-15T09:14:39;100406.06;;;10.85;99.35
9695;BME280;4690;52.422;13.486;2023-04-15T09:17:09;100398.94;;;10.96;99.63
9695;BME280;4690;52.422;13.486;2023-04-15T09:19:36;100403.81;;;10.94;99.21
9695;BME280;4690;52.422;13.486;2023-04-15T09:22:02;100405.72;;;10.93;99.82
9695;BME280;4690;52.422;13.486;2023-04-15T09:24:39;100416.81;;;10.98;99.85
9695;BME280;4690;52.422;13.486;2023-04-15T09:27:06;100410.25;;;10.99;99.21
9695;BME280;4690;52.422;13.486;2023-04-15T09:29:32;100426.00;;;11.16;99.06
9695;BME280;4690;52.422;13.486;2023-04-15T09:32:15;100424.44;;;11.20;99.51
9695;BME280;4690;52.422;13.486;2023-04-15T09:34:41;100427.66;;;11.17;99.10
9695;BME280;4690;52.422;13.486;2023-04-15T09:37:07;100425.41;;;11.14;99.46
9695;BME280;4690;52.422;13.486;2023-04-15T09:39:49;100428.38;;;11.24;98.92
9695;BME280;4690;52.422;13.486;2023-04-15T09:42:16;100433.75;;;11.19;98.59
9695;BME280;4690;52.422;13.486;2023-04-15T09:44:49;100436.25;;;11.20;98.12
9695;BME280;4690;52.422;13.486;2023-04-15T09:47:30;100434.56;;;11.08;98.41
9695;BME280;4690;52.422;13.486;2023-04-15T09:49:58;100437.44;;;11.01;99.00
9695;BME280;4690;52.422;13.486;2023-04-15T09:52:24;100440.41;;;10.88;99.84
9695;BME280;4690;52.422;13.486;2023-04-15T09:54:53;100448.88;;;10.98;100.00
9695;BME280;4690;52.422;13.486;2023-04-15T09:57:23;100448.41;;;11.13;100.00
9695;BME280;4690;52.422;13.486;2023-04-15T09:59:50;100444.94;;;11.17;100.00
9695;BME280;4690;52.422;13.486;2023-04-15T10:02:19;100443.88;;;11.18;99.46
9695;BME280;4690;52.422;13.486;2023-04-15T10:04:47;100453.06;;;11.12;99.51
9695;BME280;4690;52.422;13.486;2023-04-15T10:07:14;100453.06;;;11.12;99.90
9695;BME280;4690;52.422;13.486;2023-04-15T10:09:41;100454.38;;;11.10;100.00
9695;BME280;4690;52.422;13.486;2023-04-15T10:12:10;100458.06;;;11.27;100.00
9695;BME280;4690;52.422;13.486;2023-04-15T10:14:38;100458.69;;;11.29;99.62
9695;BME280;4690;52.422;13.486;2023-04-15T10:17:10;100468.22;;;11.27;99.65
9695;BME280;4690;52.422;13.486;2023-04-15T10:19:37;100459.03;;;11.21;99.87
9695;BME280;4690;52.422;13.486;2023-04-15T10:22:03;100467.63;;;11.13;100.00
9695;BME280;4690;52.422;13.486;2023-04-15T10:24:32;100463.91;;;11.19;100.00
9695;BME280;4690;52.422;13.486;2023-04-15T10:26:59;100462.13;;;11.13;100.00
9695;BME280;4690;52.422;13.486;2023-04-15T10:29:25;100474.97;;;11.00;100.00
9695;BME280;4690;52.422;13.486;2023-04-15T10:31:55;100469.75;;;11.11;100.00
9695;BME280;4690;52.422;13.486;2023-04-15T10:34:23;100463.19;;;11.12;100.00
9695;BME280;4690;52.422;13.486;2023-04-15T10:36:50;100472.28;;;11.12;100.00
9695;BME280;4690;52.422;13.486;2023-04-15T10:42:17;100467.75;;;11.30;100.00
9695;BME280;4690;52.422;13.486;2023-04-15T10:44:47;100470.34;;;11.36;100.00
9695;BME280;4690;52.422;13.486;2023-04-15T10:47:16;100471.66;;;11.45;100.00
9695;BME280;4690;52.422;13.486;2023-04-15T10:52:20;100475.63;;;11.38;99.98
9695;BME280;4690;52.422;13.486;2023-04-15T10:54:47;100478.72;;;11.41;100.00
9695;BME280;4690;52.422;13.486;2023-04-15T10:57:22;100484.31;;;11.47;100.00
9695;BME280;4690;52.422;13.486;2023-04-15T11:05:07;100491.47;;;11.36;100.00
9695;BME280;4690;52.422;13.486;2023-04-15T11:13:16;100498.03;;;11.35;100.00
9695;BME280;4690;52.422;13.486;2023-04-15T11:15:44;100498.88;;;11.35;100.00
9695;BME280;4690;52.422;13.486;2023-04-15T11:18:16;100499.84;;;11.29;100.00
9695;BME280;4690;52.422;13.486;2023-04-15T11:23:17;100511.84;;;11.28;100.00
9695;BME280;4690;52.422;13.486;2023-04-15T11:25:44;100510.41;;;11.26;100.00
9695;BME280;4690;52.422;13.486;2023-04-15T11:28:11;100512.19;;;11.20;100.00
9695;BME280;4690;52.422;13.486;2023-04-15T11:30:39;100506.84;;;11.25;100.00
9695;BME280;4690;52.422;13.486;2023-04-15T11:33:07;100522.59;;;11.41;100.00
9695;BME280;4690;52.422;13.486;2023-04-15T11:35:34;100514.94;;;11.32;100.00
9695;BME280;4690;52.422;13.486;2023-04-15T11:38:04;100527.50;;;11.28;100.00
9695;BME280;4690;52.422;13.486;2023-04-15T11:40:33;100519.50;;;11.38;100.00
9695;BME280;4690;52.422;13.486;2023-04-15T11:43:14;100524.66;;;11.46;100.00
9695;BME280;4690;52.422;13.486;2023-04-15T11:45:58;100527.13;;;11.48;100.00
9695;BME280;4690;52.422;13.486;2023-04-15T11:48:33;100531.53;;;11.49;100.00
9695;BME280;4690;52.422;13.486;2023-04-15T11:51:05;100539.41;;;11.57;100.00
9695;BME280;4690;52.422;13.486;2023-04-15T11:53:50;100541.31;;;11.68;100.00
9695;BME280;4690;52.422;13.486;2023-04-15T11:56:19;100547.91;;;11.79;100.00
9695;BME280;4690;52.422;13.486;2023-04-15T11:58:46;100546.13;;;11.73;100.00
9695;BME280;4690;52.422;13.486;2023-04-15T12:01:13;100550.66;;;11.67;100.00
9695;BME280;4690;52.422;13.486;2023-04-15T12:03:46;100544.06;;;11.68;100.00
9695;BME280;4690;52.422;13.486;2023-04-15T12:06:21;100546.00;;;11.67;100.00
9695;BME280;4690;52.422;13.486;2023-04-15T12:11:37;100547.56;;;11.52;100.00
9695;BME280;4690;52.422;13.486;2023-04-15T12:16:45;100549.22;;;11.53;100.00
9695;BME280;4690;52.422;13.486;2023-04-15T12:19:14;100555.66;;;11.70;100.00
9695;BME280;4690;52.422;13.486;2023-04-15T12:21:45;100556.13;;;11.79;100.00
9695;BME280;4690;52.422;13.486;2023-04-15T12:24:11;100559.00;;;11.72;100.00
9695;BME280;4690;52.422;13.486;2023-04-15T12:26:48;100558.88;;;11.79;100.00
9695;BME280;4690;52.422;13.486;2023-04-15T12:29:16;100564.88;;;11.87;100.00
9695;BME280;4690;52.422;13.486;2023-04-15T12:31:51;100565.19;;;11.79;100.00
9695;BME280;4690;52.422;13.486;2023-04-15T12:34:28;100564.38;;;11.67;100.00
9695;BME280;4690;52.422;13.486;2023-04-15T12:36:55;100573.91;;;11.76;100.00
9695;BME280;4690;52.422;13.486;2023-04-15T12:39:28;100567.50;;;11.94;100.00
9695;BME280;4690;52.422;13.486;2023-04-15T12:41:54;100569.97;;;11.84;100.00
9695;BME280;4690;52.422;13.486;2023-04-15T12:44:23;100572.41;;;11.92;100.00
9695;BME280;4690;52.422;13.486;2023-04-15T12:46:49;100576.31;;;11.84;100.00
9695;BME280;4690;52.422;13.486;2023-04-15T12:49:15;100577.59;;;11.82;100.00
9695;BME280;4690;52.422;13.486;2023-04-15T12:51:46;100585.28;;;11.80;100.00
9695;BME280;4690;52.422;13.486;2023-04-15T12:54:11;100591.97;;;11.96;100.00
9695;BME280;4690;52.422;13.486;2023-04-15T12:56:37;100590.41;;;12.11;100.00
9695;BME280;4690;52.422;13.486;2023-04-15T12:59:03;100586.91;;;12.16;100.00
9695;BME280;4690;52.422;13.486;2023-04-15T13:01:28;100590.38;;;12.23;100.00
9695;BME280;4690;52.422;13.486;2023-04-15T13:03:55;100592.91;;;12.25;100.00
9695;BME280;4690;52.422;13.486;2023-04-15T13:06:20;100593.34;;;12.22;100.00
9695;BME280;4690;52.422;13.486;2023-04-15T13:08:47;100596.84;;;12.17;100.00
9695;BME280;4690;52.422;13.486;2023-04-15T13:11:12;100595.25;;;12.33;100.00
9695;BME280;4690;52.422;13.486;2023-04-15T13:13:38;100597.72;;;12.46;100.00
9695;BME280;4690;52.422;13.486;2023-04-15T13:16:04;100592.50;;;12.45;99.99
9695;BME280;4690;52.422;13.486;2023-04-15T13:18:30;100596.41;;;12.49;99.99
9695;BME280;4690;52.422;13.486;2023-04-15T13:20:56;100604.56;;;12.44;99.55
9695;BME280;4690;52.422;13.486;2023-04-15T13:23:22;100607.44;;;12.37;99.52
9695;BME280;4690;52.422;13.486;2023-04-15T13:25:48;100604.09;;;12.35;99.81